メインページ
METAR-TAF:

METAR-TAF

空港 :

Castlegar, ブリティッシュコロンビア州, カナダ

緯度: 49-18N, 経度: 117-38W, 海抜: 495m

現時点の気象観測

当レポートは41分前の13:00(UTC)に作成
変向風 2kt
気温 6°C
湿度 81%
気圧 1019 hPa
視程: 24.1km
高度18000ftの雲はほとんどない
高度25000ftの千切れ雲あり

METAR: CYCG 231300Z VRB02KT 15SM FEW180 BKN250 06/03 A3008 RMK AC1CI7 AC TR SLP190

時間: 06:41 (13:41 UTC)

予報

当レポートは13時間3分前の00:38(UTC)に作成
予報は23日の 01時(UTC)から 23日の 04時(UTC)まで有効
の風 8kt
視程: 10km
高度8000ftの雲は散在している

TAF: CYCG 230038Z 2301/2304 35008KT P6SM SCT080 RMK NXT FCST WILL BE ISSUED AT 231445Z

4,000以上の空港の気象観測と天気予報(METAR報とTAF報)

利用可能な観測所は地図上に黄色い丸と赤い丸で示す。

丸の上にカーソルを重ねると観測所名を参照できる。

次にクリックすると気象観測と天気予報を参照できる。

マップの切り替え:黒色「×」印の緑ボタンをクリックして拡大、「-」印の緑ボタンをクリックして縮小、緑色の三角印をクリックして隣りの地図に切り替え


METAR-TAF: